Terminal Aerodrome Forecast
Issued by NWS

Home | Current Version | Previous Version | Text Only | Print | Product List | Glossary On
Versions: 1 2 3 4 5 6 7 8 9 10 11 12 13 14
000
FTUS45 KABQ 191732
TAFFMN
TAF
KFMN 191732Z 1918/2018 26015KT P6SM SKC
     FM192100 26020KT P6SM SCT250
     FM200300 26007KT P6SM SKC=

USA.gov is the U.S. government's official web portal to all federal, state and local government web resources and services.